sensor_id;sensor_type;location;lat;lon;timestamp;P1;durP1;ratioP1;P2;durP2;ratioP2
71769;SDS011;66386;52.122;5.420;2023-04-25T00:01:54;10.85;;;1.88;;
71769;SDS011;66386;52.122;5.420;2023-04-25T00:04:20;11.60;;;1.50;;
71769;SDS011;66386;52.122;5.420;2023-04-25T00:06:48;9.13;;;1.65;;
71769;SDS011;66386;52.122;5.420;2023-04-25T00:09:14;6.97;;;1.52;;
71769;SDS011;66386;52.122;5.420;2023-04-25T00:11:41;10.23;;;2.07;;
71769;SDS011;66386;52.122;5.420;2023-04-25T00:14:07;26.65;;;4.20;;
71769;SDS011;66386;52.122;5.420;2023-04-25T00:16:34;10.60;;;1.10;;
71769;SDS011;66386;52.122;5.420;2023-04-25T00:19:02;6.53;;;1.40;;
71769;SDS011;66386;52.122;5.420;2023-04-25T00:21:29;12.10;;;2.75;;
71769;SDS011;66386;52.122;5.420;2023-04-25T00:23:57;9.27;;;2.03;;
71769;SDS011;66386;52.122;5.420;2023-04-25T00:26:24;6.80;;;1.10;;
71769;SDS011;66386;52.122;5.420;2023-04-25T00:28:51;7.50;;;1.63;;
71769;SDS011;66386;52.122;5.420;2023-04-25T00:31:17;9.82;;;2.33;;
71769;SDS011;66386;52.122;5.420;2023-04-25T00:33:44;6.88;;;1.98;;
71769;SDS011;66386;52.122;5.420;2023-04-25T00:36:10;14.33;;;2.40;;
71769;SDS011;66386;52.122;5.420;2023-04-25T00:38:37;6.03;;;2.20;;
71769;SDS011;66386;52.122;5.420;2023-04-25T00:41:05;10.25;;;1.77;;
71769;SDS011;66386;52.122;5.420;2023-04-25T00:43:32;11.13;;;1.77;;
71769;SDS011;66386;52.122;5.420;2023-04-25T00:46:00;9.55;;;1.92;;
71769;SDS011;66386;52.122;5.420;2023-04-25T00:48:27;16.40;;;1.80;;
71769;SDS011;66386;52.122;5.420;2023-04-25T00:50:54;4.50;;;1.58;;
71769;SDS011;66386;52.122;5.420;2023-04-25T00:53:23;10.52;;;1.52;;
71769;SDS011;66386;52.122;5.420;2023-04-25T00:55:51;11.63;;;1.88;;
71769;SDS011;66386;52.122;5.420;2023-04-25T00:58:19;10.85;;;1.83;;
71769;SDS011;66386;52.122;5.420;2023-04-25T01:00:48;15.60;;;2.33;;
71769;SDS011;66386;52.122;5.420;2023-04-25T01:03:16;10.05;;;1.67;;
71769;SDS011;66386;52.122;5.420;2023-04-25T01:05:46;6.95;;;1.42;;
71769;SDS011;66386;52.122;5.420;2023-04-25T01:08:13;6.35;;;1.50;;
71769;SDS011;66386;52.122;5.420;2023-04-25T01:10:40;8.18;;;2.15;;
71769;SDS011;66386;52.122;5.420;2023-04-25T01:13:06;7.73;;;2.23;;
71769;SDS011;66386;52.122;5.420;2023-04-25T01:15:33;6.35;;;1.80;;
71769;SDS011;66386;52.122;5.420;2023-04-25T01:18:02;11.85;;;2.00;;
71769;SDS011;66386;52.122;5.420;2023-04-25T01:20:29;9.30;;;1.65;;
71769;SDS011;66386;52.122;5.420;2023-04-25T01:22:58;12.73;;;1.83;;
71769;SDS011;66386;52.122;5.420;2023-04-25T01:25:25;7.80;;;1.50;;
71769;SDS011;66386;52.122;5.420;2023-04-25T01:27:52;8.02;;;1.70;;
71769;SDS011;66386;52.122;5.420;2023-04-25T01:30:19;6.30;;;1.33;;
71769;SDS011;66386;52.122;5.420;2023-04-25T01:32:45;11.50;;;1.50;;
71769;SDS011;66386;52.122;5.420;2023-04-25T01:35:14;8.30;;;1.75;;
71769;SDS011;66386;52.122;5.420;2023-04-25T01:37:41;7.53;;;1.87;;
71769;SDS011;66386;52.122;5.420;2023-04-25T01:40:09;6.32;;;1.58;;
71769;SDS011;66386;52.122;5.420;2023-04-25T01:42:41;7.93;;;1.25;;
71769;SDS011;66386;52.122;5.420;2023-04-25T01:45:09;7.05;;;1.27;;
71769;SDS011;66386;52.122;5.420;2023-04-25T01:47:37;5.32;;;1.60;;
71769;SDS011;66386;52.122;5.420;2023-04-25T01:50:06;7.20;;;1.27;;
71769;SDS011;66386;52.122;5.420;2023-04-25T01:52:34;6.95;;;2.05;;
71769;SDS011;66386;52.122;5.420;2023-04-25T01:55:01;8.40;;;2.38;;
71769;SDS011;66386;52.122;5.420;2023-04-25T01:57:28;6.80;;;1.13;;
71769;SDS011;66386;52.122;5.420;2023-04-25T01:59:55;11.10;;;1.63;;
71769;SDS011;66386;52.122;5.420;2023-04-25T02:02:26;7.97;;;1.30;;
71769;SDS011;66386;52.122;5.420;2023-04-25T02:04:53;9.15;;;1.40;;
71769;SDS011;66386;52.122;5.420;2023-04-25T02:07:20;7.93;;;1.25;;
71769;SDS011;66386;52.122;5.420;2023-04-25T02:09:47;7.47;;;1.05;;
71769;SDS011;66386;52.122;5.420;2023-04-25T02:12:13;7.13;;;1.45;;
71769;SDS011;66386;52.122;5.420;2023-04-25T02:14:40;8.83;;;1.73;;
71769;SDS011;66386;52.122;5.420;2023-04-25T02:17:06;6.43;;;1.45;;
71769;SDS011;66386;52.122;5.420;2023-04-25T02:19:33;8.00;;;1.92;;
71769;SDS011;66386;52.122;5.420;2023-04-25T02:22:00;6.85;;;1.67;;
71769;SDS011;66386;52.122;5.420;2023-04-25T02:24:26;4.95;;;1.20;;
71769;SDS011;66386;52.122;5.420;2023-04-25T02:26:54;7.10;;;1.20;;
71769;SDS011;66386;52.122;5.420;2023-04-25T02:29:22;5.30;;;1.17;;
71769;SDS011;66386;52.122;5.420;2023-04-25T02:31:49;7.03;;;0.95;;
71769;SDS011;66386;52.122;5.420;2023-04-25T02:34:15;5.50;;;1.10;;
71769;SDS011;66386;52.122;5.420;2023-04-25T02:36:42;5.45;;;1.35;;
71769;SDS011;66386;52.122;5.420;2023-04-25T02:39:09;6.17;;;1.10;;
71769;SDS011;66386;52.122;5.420;2023-04-25T02:41:36;4.32;;;0.95;;
71769;SDS011;66386;52.122;5.420;2023-04-25T02:44:02;13.52;;;2.05;;
71769;SDS011;66386;52.122;5.420;2023-04-25T02:46:29;8.40;;;1.00;;
71769;SDS011;66386;52.122;5.420;2023-04-25T02:49:05;10.93;;;1.55;;
71769;SDS011;66386;52.122;5.420;2023-04-25T02:51:32;4.27;;;1.30;;
71769;SDS011;66386;52.122;5.420;2023-04-25T02:53:58;5.75;;;1.20;;
71769;SDS011;66386;52.122;5.420;2023-04-25T02:56:25;6.32;;;1.13;;
71769;SDS011;66386;52.122;5.420;2023-04-25T02:58:52;9.32;;;1.25;;
71769;SDS011;66386;52.122;5.420;2023-04-25T03:01:19;9.07;;;1.58;;
71769;SDS011;66386;52.122;5.420;2023-04-25T03:03:46;10.80;;;1.23;;
71769;SDS011;66386;52.122;5.420;2023-04-25T03:06:13;11.10;;;2.92;;
71769;SDS011;66386;52.122;5.420;2023-04-25T03:08:40;8.43;;;1.50;;
71769;SDS011;66386;52.122;5.420;2023-04-25T03:11:06;7.57;;;1.75;;
71769;SDS011;66386;52.122;5.420;2023-04-25T03:13:33;14.68;;;1.63;;
71769;SDS011;66386;52.122;5.420;2023-04-25T03:15:59;7.60;;;1.50;;
71769;SDS011;66386;52.122;5.420;2023-04-25T03:18:27;6.50;;;1.80;;
71769;SDS011;66386;52.122;5.420;2023-04-25T03:20:53;7.40;;;1.25;;
71769;SDS011;66386;52.122;5.420;2023-04-25T03:23:20;9.52;;;1.55;;
71769;SDS011;66386;52.122;5.420;2023-04-25T03:25:47;13.63;;;1.80;;
71769;SDS011;66386;52.122;5.420;2023-04-25T03:28:14;12.03;;;2.00;;
71769;SDS011;66386;52.122;5.420;2023-04-25T03:30:40;6.60;;;1.98;;
71769;SDS011;66386;52.122;5.420;2023-04-25T03:33:07;15.55;;;3.10;;
71769;SDS011;66386;52.122;5.420;2023-04-25T03:35:33;11.77;;;1.92;;
71769;SDS011;66386;52.122;5.420;2023-04-25T03:37:59;6.85;;;1.40;;
71769;SDS011;66386;52.122;5.420;2023-04-25T03:40:26;14.07;;;1.67;;
71769;SDS011;66386;52.122;5.420;2023-04-25T03:42:52;8.15;;;1.50;;
71769;SDS011;66386;52.122;5.420;2023-04-25T03:45:19;8.65;;;1.20;;
71769;SDS011;66386;52.122;5.420;2023-04-25T03:47:46;9.88;;;1.58;;
71769;SDS011;66386;52.122;5.420;2023-04-25T03:50:13;8.35;;;1.00;;
71769;SDS011;66386;52.122;5.420;2023-04-25T03:52:39;8.37;;;1.40;;
71769;SDS011;66386;52.122;5.420;2023-04-25T03:55:06;7.30;;;1.33;;
71769;SDS011;66386;52.122;5.420;2023-04-25T03:57:33;4.43;;;1.10;;
71769;SDS011;66386;52.122;5.420;2023-04-25T03:59:59;9.23;;;1.00;;
71769;SDS011;66386;52.122;5.420;2023-04-25T04:02:26;13.65;;;1.38;;
71769;SDS011;66386;52.122;5.420;2023-04-25T04:04:52;12.23;;;2.00;;
71769;SDS011;66386;52.122;5.420;2023-04-25T04:07:19;12.25;;;1.52;;
71769;SDS011;66386;52.122;5.420;2023-04-25T04:09:46;8.00;;;1.08;;
71769;SDS011;66386;52.122;5.420;2023-04-25T04:12:12;12.55;;;1.25;;
71769;SDS011;66386;52.122;5.420;2023-04-25T04:14:39;5.78;;;1.38;;
71769;SDS011;66386;52.122;5.420;2023-04-25T04:17:06;11.93;;;1.20;;
71769;SDS011;66386;52.122;5.420;2023-04-25T04:19:33;12.65;;;1.67;;
71769;SDS011;66386;52.122;5.420;2023-04-25T04:21:59;5.13;;;1.42;;
71769;SDS011;66386;52.122;5.420;2023-04-25T04:24:26;11.35;;;0.90;;
71769;SDS011;66386;52.122;5.420;2023-04-25T04:26:52;6.25;;;1.33;;
71769;SDS011;66386;52.122;5.420;2023-04-25T04:29:19;6.43;;;0.83;;
71769;SDS011;66386;52.122;5.420;2023-04-25T04:31:50;8.27;;;0.95;;
71769;SDS011;66386;52.122;5.420;2023-04-25T04:34:18;3.88;;;0.70;;
71769;SDS011;66386;52.122;5.420;2023-04-25T04:36:45;7.03;;;1.00;;
71769;SDS011;66386;52.122;5.420;2023-04-25T04:39:12;7.65;;;1.00;;
71769;SDS011;66386;52.122;5.420;2023-04-25T04:41:39;5.80;;;0.80;;
71769;SDS011;66386;52.122;5.420;2023-04-25T04:44:05;3.80;;;1.02;;
71769;SDS011;66386;52.122;5.420;2023-04-25T04:46:36;5.15;;;1.17;;
71769;SDS011;66386;52.122;5.420;2023-04-25T04:49:08;4.53;;;0.75;;
71769;SDS011;66386;52.122;5.420;2023-04-25T04:51:36;5.53;;;1.05;;
71769;SDS011;66386;52.122;5.420;2023-04-25T04:54:02;4.23;;;0.83;;
71769;SDS011;66386;52.122;5.420;2023-04-25T04:56:30;4.75;;;0.88;;
71769;SDS011;66386;52.122;5.420;2023-04-25T04:58:57;8.25;;;1.30;;
71769;SDS011;66386;52.122;5.420;2023-04-25T05:01:24;7.55;;;0.70;;
71769;SDS011;66386;52.122;5.420;2023-04-25T05:03:52;6.40;;;0.90;;
71769;SDS011;66386;52.122;5.420;2023-04-25T05:06:20;3.77;;;0.60;;
71769;SDS011;66386;52.122;5.420;2023-04-25T05:08:46;3.72;;;1.00;;
71769;SDS011;66386;52.122;5.420;2023-04-25T05:11:13;2.00;;;0.70;;
71769;SDS011;66386;52.122;5.420;2023-04-25T05:13:39;3.25;;;0.68;;
71769;SDS011;66386;52.122;5.420;2023-04-25T05:16:06;2.00;;;0.40;;
71769;SDS011;66386;52.122;5.420;2023-04-25T05:18:32;3.13;;;0.60;;
71769;SDS011;66386;52.122;5.420;2023-04-25T05:20:59;5.63;;;0.82;;
71769;SDS011;66386;52.122;5.420;2023-04-25T05:23:25;4.32;;;0.70;;
71769;SDS011;66386;52.122;5.420;2023-04-25T05:25:54;4.85;;;1.00;;
71769;SDS011;66386;52.122;5.420;2023-04-25T05:28:20;4.25;;;1.05;;
71769;SDS011;66386;52.122;5.420;2023-04-25T05:30:47;8.10;;;0.90;;
71769;SDS011;66386;52.122;5.420;2023-04-25T05:33:14;3.35;;;0.77;;
71769;SDS011;66386;52.122;5.420;2023-04-25T05:35:41;5.25;;;0.82;;
71769;SDS011;66386;52.122;5.420;2023-04-25T05:38:08;2.47;;;0.60;;
71769;SDS011;66386;52.122;5.420;2023-04-25T05:40:34;6.68;;;0.70;;
71769;SDS011;66386;52.122;5.420;2023-04-25T05:43:01;2.30;;;0.50;;
71769;SDS011;66386;52.122;5.420;2023-04-25T05:45:27;3.88;;;0.82;;
71769;SDS011;66386;52.122;5.420;2023-04-25T05:47:54;2.95;;;0.65;;
71769;SDS011;66386;52.122;5.420;2023-04-25T05:50:20;3.95;;;0.40;;
71769;SDS011;66386;52.122;5.420;2023-04-25T05:52:47;5.95;;;0.65;;
71769;SDS011;66386;52.122;5.420;2023-04-25T05:55:14;3.00;;;0.47;;
71769;SDS011;66386;52.122;5.420;2023-04-25T05:57:41;3.67;;;0.95;;
71769;SDS011;66386;52.122;5.420;2023-04-25T06:00:08;4.72;;;0.55;;
71769;SDS011;66386;52.122;5.420;2023-04-25T06:02:35;6.22;;;0.73;;
71769;SDS011;66386;52.122;5.420;2023-04-25T06:05:02;5.53;;;0.75;;
71769;SDS011;66386;52.122;5.420;2023-04-25T06:07:29;4.73;;;0.60;;
71769;SDS011;66386;52.122;5.420;2023-04-25T06:09:57;4.35;;;0.90;;
71769;SDS011;66386;52.122;5.420;2023-04-25T06:12:23;2.03;;;0.60;;
71769;SDS011;66386;52.122;5.420;2023-04-25T06:14:50;3.75;;;0.77;;
71769;SDS011;66386;52.122;5.420;2023-04-25T06:17:16;5.50;;;0.60;;
71769;SDS011;66386;52.122;5.420;2023-04-25T06:19:43;8.50;;;0.80;;
71769;SDS011;66386;52.122;5.420;2023-04-25T06:22:09;1.75;;;0.93;;
71769;SDS011;66386;52.122;5.420;2023-04-25T06:24:36;6.22;;;1.00;;
71769;SDS011;66386;52.122;5.420;2023-04-25T06:27:02;4.68;;;0.95;;
71769;SDS011;66386;52.122;5.420;2023-04-25T06:29:29;5.20;;;0.77;;
71769;SDS011;66386;52.122;5.420;2023-04-25T06:31:55;3.03;;;0.80;;
71769;SDS011;66386;52.122;5.420;2023-04-25T06:34:23;5.18;;;0.50;;
71769;SDS011;66386;52.122;5.420;2023-04-25T06:36:49;3.22;;;0.50;;
71769;SDS011;66386;52.122;5.420;2023-04-25T06:39:16;6.13;;;1.10;;
71769;SDS011;66386;52.122;5.420;2023-04-25T06:41:42;4.38;;;0.80;;
71769;SDS011;66386;52.122;5.420;2023-04-25T06:44:09;6.30;;;0.60;;
71769;SDS011;66386;52.122;5.420;2023-04-25T06:46:35;3.67;;;0.50;;
71769;SDS011;66386;52.122;5.420;2023-04-25T06:49:02;6.30;;;1.00;;
71769;SDS011;66386;52.122;5.420;2023-04-25T06:51:28;4.97;;;0.57;;
71769;SDS011;66386;52.122;5.420;2023-04-25T06:53:56;6.85;;;1.40;;
71769;SDS011;66386;52.122;5.420;2023-04-25T06:56:23;7.67;;;0.53;;
71769;SDS011;66386;52.122;5.420;2023-04-25T06:58:49;5.07;;;0.60;;
71769;SDS011;66386;52.122;5.420;2023-04-25T07:01:17;4.40;;;0.55;;
71769;SDS011;66386;52.122;5.420;2023-04-25T07:03:43;7.18;;;0.68;;
71769;SDS011;66386;52.122;5.420;2023-04-25T07:06:10;4.80;;;0.60;;
71769;SDS011;66386;52.122;5.420;2023-04-25T07:08:36;3.53;;;0.87;;
71769;SDS011;66386;52.122;5.420;2023-04-25T07:11:02;4.10;;;0.50;;
71769;SDS011;66386;52.122;5.420;2023-04-25T07:13:29;1.63;;;0.32;;
71769;SDS011;66386;52.122;5.420;2023-04-25T07:15:56;5.25;;;0.70;;
71769;SDS011;66386;52.122;5.420;2023-04-25T07:18:22;5.32;;;0.70;;
71769;SDS011;66386;52.122;5.420;2023-04-25T07:20:49;8.10;;;1.03;;
71769;SDS011;66386;52.122;5.420;2023-04-25T07:23:16;2.83;;;0.57;;
71769;SDS011;66386;52.122;5.420;2023-04-25T07:25:42;4.45;;;0.43;;
71769;SDS011;66386;52.122;5.420;2023-04-25T07:28:08;7.05;;;0.55;;
71769;SDS011;66386;52.122;5.420;2023-04-25T07:30:35;6.47;;;0.65;;
71769;SDS011;66386;52.122;5.420;2023-04-25T07:33:01;6.83;;;0.77;;
71769;SDS011;66386;52.122;5.420;2023-04-25T07:35:28;4.40;;;0.55;;
71769;SDS011;66386;52.122;5.420;2023-04-25T07:37:54;4.68;;;0.60;;
71769;SDS011;66386;52.122;5.420;2023-04-25T07:40:21;3.20;;;0.50;;
71769;SDS011;66386;52.122;5.420;2023-04-25T07:42:48;7.78;;;0.50;;
71769;SDS011;66386;52.122;5.420;2023-04-25T07:45:14;7.03;;;0.40;;
71769;SDS011;66386;52.122;5.420;2023-04-25T07:47:41;8.43;;;0.65;;
71769;SDS011;66386;52.122;5.420;2023-04-25T07:50:08;5.07;;;0.80;;
71769;SDS011;66386;52.122;5.420;2023-04-25T07:52:34;4.70;;;0.50;;
71769;SDS011;66386;52.122;5.420;2023-04-25T07:55:01;2.70;;;0.30;;
71769;SDS011;66386;52.122;5.420;2023-04-25T07:57:27;3.40;;;0.40;;
71769;SDS011;66386;52.122;5.420;2023-04-25T07:59:54;5.97;;;0.60;;
71769;SDS011;66386;52.122;5.420;2023-04-25T08:02:21;4.18;;;0.50;;
71769;SDS011;66386;52.122;5.420;2023-04-25T08:04:47;3.63;;;0.32;;
71769;SDS011;66386;52.122;5.420;2023-04-25T08:07:16;3.92;;;0.73;;
71769;SDS011;66386;52.122;5.420;2023-04-25T08:09:42;4.93;;;0.30;;
71769;SDS011;66386;52.122;5.420;2023-04-25T08:12:08;4.88;;;0.65;;
71769;SDS011;66386;52.122;5.420;2023-04-25T08:14:35;6.38;;;0.40;;
71769;SDS011;66386;52.122;5.420;2023-04-25T08:17:03;6.85;;;0.50;;
71769;SDS011;66386;52.122;5.420;2023-04-25T08:19:29;1.92;;;0.22;;
71769;SDS011;66386;52.122;5.420;2023-04-25T08:21:56;9.73;;;0.50;;
71769;SDS011;66386;52.122;5.420;2023-04-25T08:24:23;4.00;;;0.40;;
71769;SDS011;66386;52.122;5.420;2023-04-25T08:26:50;1.88;;;0.50;;
71769;SDS011;66386;52.122;5.420;2023-04-25T08:29:17;4.63;;;0.30;;
71769;SDS011;66386;52.122;5.420;2023-04-25T08:31:44;6.38;;;0.65;;
71769;SDS011;66386;52.122;5.420;2023-04-25T08:34:11;5.20;;;0.40;;
71769;SDS011;66386;52.122;5.420;2023-04-25T08:36:37;5.00;;;0.75;;
71769;SDS011;66386;52.122;5.420;2023-04-25T08:39:05;3.67;;;0.40;;
71769;SDS011;66386;52.122;5.420;2023-04-25T08:41:33;4.38;;;0.35;;
71769;SDS011;66386;52.122;5.420;2023-04-25T08:44:02;3.50;;;0.50;;
71769;SDS011;66386;52.122;5.420;2023-04-25T08:46:30;2.27;;;0.30;;
71769;SDS011;66386;52.122;5.420;2023-04-25T08:49:00;5.00;;;0.40;;
71769;SDS011;66386;52.122;5.420;2023-04-25T08:51:27;2.88;;;0.30;;
71769;SDS011;66386;52.122;5.420;2023-04-25T08:54:09;3.05;;;0.30;;
71769;SDS011;66386;52.122;5.420;2023-04-25T08:56:41;4.72;;;0.50;;
71769;SDS011;66386;52.122;5.420;2023-04-25T08:59:11;4.77;;;0.37;;
71769;SDS011;66386;52.122;5.420;2023-04-25T09:01:38;6.65;;;0.50;;
71769;SDS011;66386;52.122;5.420;2023-04-25T09:04:05;6.18;;;1.10;;
71769;SDS011;66386;52.122;5.420;2023-04-25T09:06:32;3.30;;;0.40;;
71769;SDS011;66386;52.122;5.420;2023-04-25T09:09:04;3.70;;;0.40;;
71769;SDS011;66386;52.122;5.420;2023-04-25T09:11:33;4.33;;;0.80;;
71769;SDS011;66386;52.122;5.420;2023-04-25T09:19:29;4.32;;;0.47;;
71769;SDS011;66386;52.122;5.420;2023-04-25T09:22:04;3.15;;;0.30;;
71769;SDS011;66386;52.122;5.420;2023-04-25T09:24:41;3.60;;;0.60;;
71769;SDS011;66386;52.122;5.420;2023-04-25T09:27:10;7.03;;;0.50;;
71769;SDS011;66386;52.122;5.420;2023-04-25T09:29:39;3.22;;;0.40;;
71769;SDS011;66386;52.122;5.420;2023-04-25T09:32:17;6.00;;;0.50;;
71769;SDS011;66386;52.122;5.420;2023-04-25T09:37:17;5.07;;;0.47;;
71769;SDS011;66386;52.122;5.420;2023-04-25T09:39:53;4.53;;;0.47;;
71769;SDS011;66386;52.122;5.420;2023-04-25T09:42:22;4.85;;;0.57;;
71769;SDS011;66386;52.122;5.420;2023-04-25T09:44:51;3.90;;;0.28;;
71769;SDS011;66386;52.122;5.420;2023-04-25T09:47:22;2.17;;;0.60;;
71769;SDS011;66386;52.122;5.420;2023-04-25T09:49:50;3.80;;;0.30;;
71769;SDS011;66386;52.122;5.420;2023-04-25T09:52:22;4.60;;;0.90;;
71769;SDS011;66386;52.122;5.420;2023-04-25T09:54:51;3.53;;;0.30;;
71769;SDS011;66386;52.122;5.420;2023-04-25T09:57:19;4.43;;;0.45;;
71769;SDS011;66386;52.122;5.420;2023-04-25T09:59:47;4.90;;;0.30;;
71769;SDS011;66386;52.122;5.420;2023-04-25T10:02:17;3.37;;;0.60;;
71769;SDS011;66386;52.122;5.420;2023-04-25T10:04:52;2.75;;;0.20;;
71769;SDS011;66386;52.122;5.420;2023-04-25T10:07:26;3.20;;;0.30;;
71769;SDS011;66386;52.122;5.420;2023-04-25T10:10:00;2.80;;;0.40;;
71769;SDS011;66386;52.122;5.420;2023-04-25T10:12:29;1.63;;;0.30;;
71769;SDS011;66386;52.122;5.420;2023-04-25T10:15:00;2.33;;;0.70;;
71769;SDS011;66386;52.122;5.420;2023-04-25T10:17:27;3.83;;;0.30;;
71769;SDS011;66386;52.122;5.420;2023-04-25T10:19:54;2.63;;;0.30;;
71769;SDS011;66386;52.122;5.420;2023-04-25T10:22:37;3.55;;;0.25;;
71769;SDS011;66386;52.122;5.420;2023-04-25T10:25:07;1.83;;;0.55;;
71769;SDS011;66386;52.122;5.420;2023-04-25T10:27:35;4.30;;;0.30;;
71769;SDS011;66386;52.122;5.420;2023-04-25T10:30:09;5.05;;;0.30;;
71769;SDS011;66386;52.122;5.420;2023-04-25T10:32:43;2.53;;;0.40;;
71769;SDS011;66386;52.122;5.420;2023-04-25T10:37:56;1.90;;;0.40;;
71769;SDS011;66386;52.122;5.420;2023-04-25T10:40:32;1.77;;;0.30;;
71769;SDS011;66386;52.122;5.420;2023-04-25T10:45:58;3.25;;;0.43;;
71769;SDS011;66386;52.122;5.420;2023-04-25T10:48:27;2.33;;;0.30;;
71769;SDS011;66386;52.122;5.420;2023-04-25T10:51:09;2.22;;;0.35;;
71769;SDS011;66386;52.122;5.420;2023-04-25T10:53:37;2.10;;;0.30;;
71769;SDS011;66386;52.122;5.420;2023-04-25T10:56:09;5.07;;;0.30;;
71769;SDS011;66386;52.122;5.420;2023-04-25T10:58:41;2.63;;;0.20;;
71769;SDS011;66386;52.122;5.420;2023-04-25T11:01:09;2.75;;;0.70;;
71769;SDS011;66386;52.122;5.420;2023-04-25T11:03:42;4.60;;;0.20;;
71769;SDS011;66386;52.122;5.420;2023-04-25T11:06:18;2.70;;;0.60;;
71769;SDS011;66386;52.122;5.420;2023-04-25T11:08:49;1.52;;;0.30;;
71769;SDS011;66386;52.122;5.420;2023-04-25T11:11:17;1.15;;;0.22;;
71769;SDS011;66386;52.122;5.420;2023-04-25T11:13:48;3.63;;;0.50;;
71769;SDS011;66386;52.122;5.420;2023-04-25T11:16:16;2.42;;;0.57;;
71769;SDS011;66386;52.122;5.420;2023-04-25T11:18:53;2.57;;;0.30;;
71769;SDS011;66386;52.122;5.420;2023-04-25T11:21:19;3.85;;;0.60;;
71769;SDS011;66386;52.122;5.420;2023-04-25T11:23:46;2.05;;;0.50;;
71769;SDS011;66386;52.122;5.420;2023-04-25T11:26:13;2.75;;;0.35;;
71769;SDS011;66386;52.122;5.420;2023-04-25T11:28:40;0.47;;;0.22;;
71769;SDS011;66386;52.122;5.420;2023-04-25T11:31:07;2.00;;;0.47;;
71769;SDS011;66386;52.122;5.420;2023-04-25T11:33:35;4.25;;;0.50;;
71769;SDS011;66386;52.122;5.420;2023-04-25T11:36:02;3.10;;;0.52;;
71769;SDS011;66386;52.122;5.420;2023-04-25T11:38:29;3.50;;;0.40;;
71769;SDS011;66386;52.122;5.420;2023-04-25T11:40:56;3.55;;;0.50;;
71769;SDS011;66386;52.122;5.420;2023-04-25T11:43:23;2.20;;;0.20;;
71769;SDS011;66386;52.122;5.420;2023-04-25T11:45:49;4.15;;;0.30;;
71769;SDS011;66386;52.122;5.420;2023-04-25T11:48:19;3.33;;;0.43;;
71769;SDS011;66386;52.122;5.420;2023-04-25T11:50:51;4.60;;;0.40;;
71769;SDS011;66386;52.122;5.420;2023-04-25T11:53:17;4.13;;;0.50;;
71769;SDS011;66386;52.122;5.420;2023-04-25T11:55:44;4.40;;;0.30;;
71769;SDS011;66386;52.122;5.420;2023-04-25T11:58:11;5.25;;;0.40;;
71769;SDS011;66386;52.122;5.420;2023-04-25T12:00:41;5.20;;;1.05;;
71769;SDS011;66386;52.122;5.420;2023-04-25T12:03:17;2.70;;;0.40;;
71769;SDS011;66386;52.122;5.420;2023-04-25T12:05:45;2.15;;;0.40;;
71769;SDS011;66386;52.122;5.420;2023-04-25T12:08:13;2.70;;;0.30;;
71769;SDS011;66386;52.122;5.420;2023-04-25T12:10:41;3.53;;;0.80;;
71769;SDS011;66386;52.122;5.420;2023-04-25T12:13:19;4.40;;;0.63;;
71769;SDS011;66386;52.122;5.420;2023-04-25T12:15:47;2.80;;;0.30;;
71769;SDS011;66386;52.122;5.420;2023-04-25T12:18:14;4.60;;;0.30;;
71769;SDS011;66386;52.122;5.420;2023-04-25T12:20:41;1.60;;;0.27;;
71769;SDS011;66386;52.122;5.420;2023-04-25T12:23:08;3.85;;;0.30;;
71769;SDS011;66386;52.122;5.420;2023-04-25T12:25:35;2.78;;;0.50;;
71769;SDS011;66386;52.122;5.420;2023-04-25T12:31:03;5.07;;;0.40;;
71769;SDS011;66386;52.122;5.420;2023-04-25T12:36:05;3.25;;;0.52;;
71769;SDS011;66386;52.122;5.420;2023-04-25T12:38:37;5.25;;;0.40;;
71769;SDS011;66386;52.122;5.420;2023-04-25T12:41:05;4.97;;;0.35;;
71769;SDS011;66386;52.122;5.420;2023-04-25T12:43:32;2.08;;;0.40;;
71769;SDS011;66386;52.122;5.420;2023-04-25T12:45:59;3.17;;;0.30;;
71769;SDS011;66386;52.122;5.420;2023-04-25T12:48:26;3.30;;;0.47;;
71769;SDS011;66386;52.122;5.420;2023-04-25T12:50:52;0.95;;;0.20;;
71769;SDS011;66386;52.122;5.420;2023-04-25T12:53:19;3.83;;;0.30;;
71769;SDS011;66386;52.122;5.420;2023-04-25T12:55:47;2.22;;;0.20;;
71769;SDS011;66386;52.122;5.420;2023-04-25T12:58:15;2.00;;;0.30;;
71769;SDS011;66386;52.122;5.420;2023-04-25T13:00:42;2.40;;;0.38;;
71769;SDS011;66386;52.122;5.420;2023-04-25T13:03:09;2.17;;;0.25;;
71769;SDS011;66386;52.122;5.420;2023-04-25T13:05:37;2.30;;;0.30;;
71769;SDS011;66386;52.122;5.420;2023-04-25T13:08:04;4.30;;;0.73;;
71769;SDS011;66386;52.122;5.420;2023-04-25T13:10:31;3.90;;;0.63;;
71769;SDS011;66386;52.122;5.420;2023-04-25T13:12:59;3.92;;;0.40;;
71769;SDS011;66386;52.122;5.420;2023-04-25T13:15:27;4.25;;;0.80;;
71769;SDS011;66386;52.122;5.420;2023-04-25T13:17:54;3.25;;;0.30;;
71769;SDS011;66386;52.122;5.420;2023-04-25T13:20:21;4.05;;;0.30;;
71769;SDS011;66386;52.122;5.420;2023-04-25T13:22:48;1.63;;;0.20;;
71769;SDS011;66386;52.122;5.420;2023-04-25T13:25:15;3.75;;;0.32;;
71769;SDS011;66386;52.122;5.420;2023-04-25T13:27:42;2.17;;;0.20;;
71769;SDS011;66386;52.122;5.420;2023-04-25T13:30:10;3.33;;;0.30;;
71769;SDS011;66386;52.122;5.420;2023-04-25T13:32:37;1.50;;;0.20;;
71769;SDS011;66386;52.122;5.420;2023-04-25T13:35:10;2.10;;;0.30;;
71769;SDS011;66386;52.122;5.420;2023-04-25T13:37:38;2.33;;;0.20;;
71769;SDS011;66386;52.122;5.420;2023-04-25T13:40:05;1.95;;;0.22;;
71769;SDS011;66386;52.122;5.420;2023-04-25T13:42:35;2.13;;;0.30;;
71769;SDS011;66386;52.122;5.420;2023-04-25T13:45:03;1.73;;;0.50;;
71769;SDS011;66386;52.122;5.420;2023-04-25T13:47:29;3.03;;;0.30;;
71769;SDS011;66386;52.122;5.420;2023-04-25T13:49:57;3.25;;;0.35;;
71769;SDS011;66386;52.122;5.420;2023-04-25T13:52:23;2.13;;;0.38;;
71769;SDS011;66386;52.122;5.420;2023-04-25T13:54:53;2.67;;;0.20;;
71769;SDS011;66386;52.122;5.420;2023-04-25T13:57:19;3.00;;;0.20;;
71769;SDS011;66386;52.122;5.420;2023-04-25T13:59:46;2.63;;;0.30;;
71769;SDS011;66386;52.122;5.420;2023-04-25T14:02:13;1.67;;;0.28;;
71769;SDS011;66386;52.122;5.420;2023-04-25T14:04:40;3.90;;;0.60;;
71769;SDS011;66386;52.122;5.420;2023-04-25T14:07:07;4.70;;;0.52;;
71769;SDS011;66386;52.122;5.420;2023-04-25T14:09:34;3.92;;;0.57;;
71769;SDS011;66386;52.122;5.420;2023-04-25T14:12:01;3.60;;;0.40;;
71769;SDS011;66386;52.122;5.420;2023-04-25T14:14:28;3.15;;;0.50;;
71769;SDS011;66386;52.122;5.420;2023-04-25T14:16:54;3.30;;;0.40;;
71769;SDS011;66386;52.122;5.420;2023-04-25T14:19:23;3.08;;;0.43;;
71769;SDS011;66386;52.122;5.420;2023-04-25T14:21:50;2.40;;;0.40;;
71769;SDS011;66386;52.122;5.420;2023-04-25T14:24:16;4.70;;;0.50;;
71769;SDS011;66386;52.122;5.420;2023-04-25T14:26:43;1.95;;;0.20;;
71769;SDS011;66386;52.122;5.420;2023-04-25T14:29:09;1.33;;;0.20;;
71769;SDS011;66386;52.122;5.420;2023-04-25T14:31:38;3.47;;;0.40;;
71769;SDS011;66386;52.122;5.420;2023-04-25T14:34:06;1.67;;;0.30;;
71769;SDS011;66386;52.122;5.420;2023-04-25T14:36:33;5.00;;;0.60;;
71769;SDS011;66386;52.122;5.420;2023-04-25T14:39:00;3.40;;;0.40;;
71769;SDS011;66386;52.122;5.420;2023-04-25T14:41:27;9.07;;;0.70;;
71769;SDS011;66386;52.122;5.420;2023-04-25T14:43:53;1.48;;;0.30;;
71769;SDS011;66386;52.122;5.420;2023-04-25T14:46:20;5.13;;;0.40;;
71769;SDS011;66386;52.122;5.420;2023-04-25T14:48:48;2.40;;;0.20;;
71769;SDS011;66386;52.122;5.420;2023-04-25T14:51:15;3.22;;;0.65;;
71769;SDS011;66386;52.122;5.420;2023-04-25T14:53:42;1.05;;;0.30;;
71769;SDS011;66386;52.122;5.420;2023-04-25T14:56:08;2.88;;;0.20;;
71769;SDS011;66386;52.122;5.420;2023-04-25T14:58:35;2.15;;;0.50;;
71769;SDS011;66386;52.122;5.420;2023-04-25T15:01:01;3.93;;;0.53;;
71769;SDS011;66386;52.122;5.420;2023-04-25T15:03:28;2.20;;;0.50;;
71769;SDS011;66386;52.122;5.420;2023-04-25T15:05:55;1.73;;;0.40;;
71769;SDS011;66386;52.122;5.420;2023-04-25T15:08:21;2.03;;;0.52;;